Time;durP1;ratioP1;P1;durP2;ratioP2;P2;SDS_P1;SDS_P2;PMS_P1;PMS_P2;Temp;Humidity;BMP_temperature;BMP_pressure;BME280_temperature;BME280_humidity;BME280_pressure;Samples;Min_cycle;Max_cycle;Signal;HPM_P1;HPM_P2
2023/04/07 00:02:08;;;;;;;5.80;3.95;;;;;;;3.10;68.32;96984.81;6294774;28;20387;-65
2023/04/07 00:05:09;;;;;;;5.90;3.58;;;;;;;3.35;68.17;97023.84;6295329;28;20520;-65
2023/04/07 00:08:13;;;;;;;6.03;4.18;;;;;;;3.31;68.23;97036.13;6285299;28;20044;-64
2023/04/07 00:11:17;;;;;;;;;;;;;;;3.43;68.10;97037.44;6292994;28;20548;-66
2023/04/07 00:14:18;;;;;;;19.98;11.10;;;;;;;3.37;68.36;97042.88;6286899;28;19920;-66
2023/04/07 00:17:21;;;;;;;25.45;14.02;;;;;;;3.45;68.30;97051.22;6292607;28;20103;-66
2023/04/07 00:20:25;;;;;;;16.48;8.13;;;;;;;3.43;67.99;97045.25;6296856;28;20044;-65
2023/04/07 00:23:26;;;;;;;12.57;7.63;;;;;;;3.41;67.46;97049.66;6293897;28;20048;-66
2023/04/07 00:26:31;;;;;;;14.30;9.57;;;;;;;3.23;67.64;97064.13;6291925;28;20044;-65
2023/04/07 00:29:35;;;;;;;14.10;9.10;;;;;;;3.17;68.17;97061.72;6290207;28;20063;-67
2023/04/07 00:32:42;;;;;;;27.35;13.93;;;;;;;3.24;67.97;97077.97;6295660;28;20048;-67
2023/04/07 00:35:45;;;;;;;17.92;11.43;;;;;;;3.20;68.00;97071.16;6294634;28;20044;-67
2023/04/07 00:38:52;;;;;;;13.32;8.23;;;;;;;3.26;67.98;97070.97;6294753;28;20040;-67
2023/04/07 00:41:57;;;;;;;5.72;4.70;;;;;;;3.21;67.69;97088.47;6291227;28;20579;-67
2023/04/07 00:45:01;;;;;;;4.50;3.65;;;;;;;3.26;67.59;97078.78;6294443;28;20134;-68
2023/04/07 00:48:04;;;;;;;3.83;2.75;;;;;;;3.25;67.07;97100.47;6295068;28;20182;-66
2023/04/07 00:51:11;;;;;;;3.92;2.70;;;;;;;3.15;67.28;97097.31;6288381;28;20491;-67
2023/04/07 00:54:16;;;;;;;5.75;4.05;;;;;;;3.03;67.60;97089.88;6287499;28;20048;-67
2023/04/07 00:57:20;;;;;;;5.13;3.53;;;;;;;3.07;67.30;97094.94;6292478;28;20040;-67
2023/04/07 01:00:21;;;;;;;5.13;3.20;;;;;;;3.07;67.20;97107.94;6292196;28;20048;-67
2023/04/07 01:03:34;;;;;;;8.05;3.92;;;;;;;3.02;67.29;97115.03;6292443;28;20048;-67
2023/04/07 01:06:42;;;;;;;5.55;4.30;;;;;;;3.03;67.17;97121.97;6295853;28;20045;-65
2023/04/07 01:09:56;;;;;;;6.18;4.10;;;;;;;2.96;67.65;97124.78;6293442;28;20068;-66
2023/04/07 01:13:30;;;;;;;6.57;4.80;;;;;;;2.96;67.68;97132.59;6288521;28;20040;-65
2023/04/07 01:16:41;;;;;;;9.98;6.80;;;;;;;3.00;67.28;97137.66;6286456;28;20052;-67
2023/04/07 01:19:51;;;;;;;9.40;8.10;;;;;;;3.01;67.66;97144.53;6295246;28;20048;-65
2023/04/07 01:23:04;;;;;;;11.90;9.45;;;;;;;2.95;67.65;97149.94;6293391;28;20048;-65
2023/04/07 01:26:38;;;;;;;16.48;10.75;;;;;;;2.93;67.68;97164.72;6294379;28;20049;-65
2023/04/07 01:29:46;;;;;;;8.57;5.47;;;;;;;2.85;67.47;97166.69;6291370;28;20045;-64
2023/04/07 01:32:51;;;;;;;6.30;4.00;;;;;;;2.69;67.70;97180.13;6291089;28;20502;-64
2023/04/07 01:35:57;;;;;;;5.53;3.17;;;;;;;2.58;67.30;97174.41;6294439;28;20045;-65
2023/04/07 01:39:02;;;;;;;5.07;3.05;;;;;;;2.40;67.07;97183.53;6289116;28;20052;-65
2023/04/07 01:42:06;;;;;;;2.70;2.38;;;;;;;2.25;67.07;97179.59;6289056;28;20047;-65
2023/04/07 01:45:10;;;;;;;3.63;2.10;;;;;;;2.08;67.44;97196.53;6266321;28;20090;-65
2023/04/07 01:48:17;;;;;;;3.55;2.28;;;;;;;2.03;67.42;97200.09;6295128;28;20413;-64
2023/04/07 01:51:23;;;;;;;3.85;2.08;;;;;;;1.92;67.20;97206.44;6289429;28;20052;-64
2023/04/07 01:54:26;;;;;;;2.28;1.90;;;;;;;1.84;67.40;97213.56;6290473;28;20052;-64
2023/04/07 01:57:30;;;;;;;4.28;1.80;;;;;;;1.71;67.45;97213.88;6293307;28;20051;-67
2023/04/07 02:00:33;;;;;;;2.40;2.20;;;;;;;1.60;67.52;97210.69;6290457;28;20113;-65
2023/04/07 02:03:50;;;;;;;2.80;2.10;;;;;;;1.55;67.78;97222.91;6293439;28;20494;-65
2023/04/07 02:07:00;;;;;;;7.05;4.80;;;;;;;1.47;67.86;97230.00;6283765;28;20103;-64
2023/04/07 02:10:07;;;;;;;3.88;2.42;;;;;;;1.40;68.00;97218.09;6288100;28;20040;-65
2023/04/07 02:13:16;;;;;;;3.90;2.75;;;;;;;1.40;67.97;97236.25;6291692;28;20649;-66
2023/04/07 02:16:19;;;;;;;2.10;1.90;;;;;;;1.31;67.59;97225.19;6287312;28;20048;-66
2023/04/07 02:19:24;;;;;;;;;;;;;;;1.42;67.04;97240.50;6287924;28;20048;-65
2023/04/07 02:22:25;;;;;;;3.95;2.42;;;;;;;1.30;67.34;97243.34;6286194;28;19924;-65
2023/04/07 02:25:33;;;;;;;2.90;2.20;;;;;;;1.34;67.61;97245.84;6286804;28;20442;-66
2023/04/07 02:28:41;;;;;;;4.75;2.83;;;;;;;1.32;67.85;97270.94;6290125;28;20044;-65
2023/04/07 02:31:42;;;;;;;4.55;2.60;;;;;;;1.34;67.70;97281.31;6292087;28;20044;-66
2023/04/07 02:34:46;;;;;;;2.40;2.20;;;;;;;1.33;67.13;97283.03;6289812;28;20482;-65
2023/04/07 02:37:52;;;;;;;3.38;2.72;;;;;;;1.32;66.88;97298.63;6291515;28;20040;-65
2023/04/07 02:40:57;;;;;;;6.10;2.90;;;;;;;1.27;67.37;97301.28;6290691;28;20044;-68
2023/04/07 02:43:58;;;;;;;6.10;3.00;;;;;;;1.29;66.73;97315.09;6289942;28;20048;-65
2023/04/07 02:47:00;;;;;;;4.00;2.72;;;;;;;1.25;66.99;97318.66;6287517;28;20139;-66
2023/04/07 02:50:02;;;;;;;3.63;2.92;;;;;;;1.21;66.27;97322.16;6291913;28;20087;-65
2023/04/07 02:53:07;;;;;;;3.88;2.20;;;;;;;1.19;66.50;97329.16;6292418;28;20060;-66
2023/04/07 02:56:15;;;;;;;2.58;2.13;;;;;;;1.14;65.94;97341.34;6288286;28;20040;-65
2023/04/07 02:59:16;;;;;;;5.70;2.85;;;;;;;1.12;65.97;97343.09;6284936;28;20359;-65
2023/04/07 03:02:17;;;;;;;4.47;2.70;;;;;;;1.11;65.56;97355.22;6282232;28;20083;-64
2023/04/07 03:05:19;;;;;;;6.78;2.60;;;;;;;1.22;64.58;97359.31;6287841;28;20429;-65
2023/04/07 03:08:23;;;;;;;4.57;3.05;;;;;;;1.15;64.46;97373.28;6280035;28;20037;-65
2023/04/07 03:11:27;;;;;;;3.60;3.13;;;;;;;1.14;63.73;97367.25;6277357;28;20048;-66
2023/04/07 03:14:30;;;;;;;4.70;3.10;;;;;;;1.13;63.73;97365.53;6278309;28;20049;-64
2023/04/07 03:17:35;;;;;;;4.95;3.65;;;;;;;1.14;63.02;97372.44;6290139;28;20052;-65
2023/04/07 03:20:36;;;;;;;4.43;4.03;;;;;;;1.11;62.85;97382.88;6283846;28;20037;-66
2023/04/07 03:23:43;;;;;;;4.70;4.20;;;;;;;1.15;62.45;97387.09;6285739;28;20044;-65
2023/04/07 03:26:44;;;;;;;4.40;3.20;;;;;;;1.20;61.38;97400.84;6289392;28;20520;-64
2023/04/07 03:29:51;;;;;;;4.68;2.58;;;;;;;1.18;60.67;97400.00;6289618;28;20037;-65
2023/04/07 03:32:53;;;;;;;7.68;5.28;;;;;;;1.14;60.39;97419.09;6288546;28;20060;-65
2023/04/07 03:35:58;;;;;;;6.18;4.18;;;;;;;1.11;60.09;97424.34;6291280;28;20422;-65
2023/04/07 03:39:05;;;;;;;5.60;3.80;;;;;;;1.19;59.70;97417.28;6285000;28;20036;-64
2023/04/07 03:42:09;;;;;;;4.95;2.95;;;;;;;1.29;58.70;97412.75;6283717;28;20180;-64
2023/04/07 03:45:11;;;;;;;5.22;3.65;;;;;;;1.30;58.17;97428.31;6289062;28;20048;-64
2023/04/07 03:48:12;;;;;;;4.05;3.47;;;;;;;1.35;57.84;97428.19;6290015;28;20121;-65
2023/04/07 03:51:14;;;;;;;3.83;3.00;;;;;;;1.31;57.26;97442.09;6289329;28;20037;-64
2023/04/07 03:54:18;;;;;;;4.28;3.30;;;;;;;1.39;57.02;97450.59;6284183;28;20037;-65
2023/04/07 03:57:21;;;;;;;5.50;4.32;;;;;;;1.51;56.57;97462.47;6284562;28;20045;-64
2023/04/07 04:00:25;;;;;;;10.48;5.90;;;;;;;1.49;56.28;97466.81;6290710;28;20063;-65
2023/04/07 04:03:31;;;;;;;9.63;6.43;;;;;;;1.50;56.38;97469.41;6287631;28;20048;-66
2023/04/07 04:06:32;;;;;;;7.75;5.68;;;;;;;1.44;55.96;97453.94;6289694;28;20044;-64
2023/04/07 04:09:36;;;;;;;8.80;5.53;;;;;;;1.46;55.56;97461.69;6284969;28;20040;-65
2023/04/07 04:12:40;;;;;;;5.72;2.83;;;;;;;1.31;55.47;97455.91;6286590;28;20052;-66
2023/04/07 04:15:44;;;;;;;3.88;2.45;;;;;;;1.32;54.75;97478.38;6286930;28;20048;-66
2023/04/07 04:18:45;;;;;;;4.10;3.38;;;;;;;1.32;54.70;97474.91;6284238;28;20147;-66
2023/04/07 04:21:47;;;;;;;4.55;3.70;;;;;;;1.30;54.68;97480.16;6288625;28;20060;-66
2023/04/07 04:24:48;;;;;;;3.95;3.42;;;;;;;1.31;54.89;97484.44;6288041;28;20041;-66
2023/04/07 04:27:52;;;;;;;7.93;4.70;;;;;;;1.39;54.55;97480.84;6274915;28;20037;-66
2023/04/07 04:30:53;;;;;;;8.40;6.22;;;;;;;1.29;54.40;97465.47;6283632;28;20817;-67
2023/04/07 04:33:55;;;;;;;8.15;5.15;;;;;;;1.49;55.17;97490.16;6286603;28;20048;-66
2023/04/07 04:36:56;;;;;;;7.45;4.75;;;;;;;1.47;54.87;97489.31;6294486;28;20040;-65
2023/04/07 04:39:58;;;;;;;9.25;5.85;;;;;;;1.28;55.39;97499.22;6292720;28;20044;-66
2023/04/07 04:42:59;;;;;;;10.38;6.00;;;;;;;1.18;56.30;97503.69;6289703;28;20040;-64
2023/04/07 04:46:00;;;;;;;7.50;4.82;;;;;;;1.10;57.37;97500.38;6291798;28;20039;-64
2023/04/07 04:49:05;;;;;;;8.77;5.07;;;;;;;0.96;57.61;97497.16;6289918;28;20044;-65
2023/04/07 04:52:13;;;;;;;16.42;9.15;;;;;;;0.92;58.42;97511.91;6290025;28;20040;-65
2023/04/07 04:55:17;;;;;;;7.05;5.22;;;;;;;0.98;58.98;97501.44;6293104;28;20048;-64
2023/04/07 04:58:20;;;;;;;8.80;5.35;;;;;;;1.01;58.75;97505.72;6289639;28;20072;-64
2023/04/07 05:01:23;;;;;;;9.63;6.03;;;;;;;1.07;58.87;97518.56;6286211;28;20044;-64
2023/04/07 05:04:28;;;;;;;10.70;5.05;;;;;;;1.10;58.08;97511.63;6286420;28;20044;-65
2023/04/07 05:07:29;;;;;;;7.50;5.80;;;;;;;1.01;58.78;97519.53;6285035;28;20053;-64
2023/04/07 05:10:31;;;;;;;6.18;4.18;;;;;;;1.06;59.10;97537.59;6285067;28;20036;-63
2023/04/07 05:13:35;;;;;;;6.43;5.05;;;;;;;1.02;59.38;97541.97;6288082;28;20502;-64
2023/04/07 05:16:36;;;;;;;9.77;6.00;;;;;;;1.21;58.92;97536.47;6283548;28;20555;-64
2023/04/07 05:19:38;;;;;;;10.88;8.40;;;;;;;1.32;58.41;97543.19;6281217;28;20395;-64
2023/04/07 05:22:42;;;;;;;14.35;9.88;;;;;;;1.49;58.29;97549.81;6287745;28;20036;-63
2023/04/07 05:25:45;;;;;;;15.95;9.35;;;;;;;1.63;58.91;97547.81;6284130;28;20629;-64
2023/04/07 05:28:51;;;;;;;8.05;5.45;;;;;;;1.95;57.84;97551.53;6282950;28;20048;-64
2023/04/07 05:31:55;;;;;;;7.22;4.30;;;;;;;2.27;57.62;97550.06;6287927;28;20503;-64
2023/04/07 05:34:57;;;;;;;;;;;;;;;2.62;55.90;97552.72;6283002;28;20113;-64
2023/04/07 05:38:03;;;;;;;13.30;7.00;;;;;;;2.58;55.76;97556.28;6285937;28;19920;-64
2023/04/07 05:41:07;;;;;;;9.20;6.40;;;;;;;2.51;56.32;97569.44;6283309;28;20037;-64
2023/04/07 05:44:11;;;;;;;11.80;7.20;;;;;;;2.56;56.31;97571.03;6302974;28;20131;-63
2023/04/07 05:47:17;;;;;;;10.65;6.03;;;;;;;2.57;56.50;97564.94;6287801;28;20041;-61
2023/04/07 05:50:21;;;;;;;15.82;8.85;;;;;;;2.69;56.89;97567.28;6289428;28;20048;-64
2023/04/07 05:53:24;;;;;;;10.10;7.15;;;;;;;2.74;56.79;97581.91;6293092;28;20059;-62
2023/04/07 05:56:30;;;;;;;15.23;7.95;;;;;;;2.87;56.62;97588.56;6286043;28;20028;-65
2023/04/07 05:59:35;;;;;;;6.85;5.70;;;;;;;3.15;55.59;97581.81;6283972;28;20036;-64
2023/04/07 06:02:38;;;;;;;5.70;4.20;;;;;;;3.26;53.97;97572.91;6281358;28;20093;-63
2023/04/07 06:05:42;;;;;;;8.68;5.30;;;;;;;3.27;52.13;97577.22;6284550;28;20386;-65
2023/04/07 06:08:47;;;;;;;7.25;4.60;;;;;;;3.33;51.12;97582.25;6285516;28;20048;-63
2023/04/07 06:11:50;;;;;;;7.28;6.07;;;;;;;3.62;50.13;97583.28;6286091;28;20045;-64
2023/04/07 06:14:54;;;;;;;5.68;3.60;;;;;;;3.75;49.43;97584.66;6283955;28;20053;-64
2023/04/07 06:17:57;;;;;;;8.02;3.70;;;;;;;3.54;48.90;97591.28;6282013;28;20075;-63
2023/04/07 06:21:02;;;;;;;6.25;4.00;;;;;;;3.73;48.44;97586.44;6283665;28;20570;-63
2023/04/07 06:24:07;;;;;;;9.02;5.18;;;;;;;4.12;47.08;97599.31;6289068;28;20037;-63
2023/04/07 06:27:11;;;;;;;6.53;4.40;;;;;;;4.33;46.34;97608.25;6282750;28;20067;-62
2023/04/07 06:30:13;;;;;;;3.83;3.50;;;;;;;4.50;46.03;97606.91;6274942;28;20097;-63
2023/04/07 06:33:15;;;;;;;5.93;3.58;;;;;;;4.80;45.29;97617.31;6286407;28;20052;-64
2023/04/07 06:36:20;;;;;;;;;;;;;;;4.89;44.54;97622.25;6284738;28;20036;-66
2023/04/07 06:39:25;;;;;;;4.90;3.85;;;;;;;4.55;44.65;97614.56;6288729;28;19970;-65
2023/04/07 06:42:29;;;;;;;5.47;4.38;;;;;;;4.45;43.40;97624.41;6290028;28;20387;-64
2023/04/07 06:45:30;;;;;;;5.80;4.28;;;;;;;4.15;43.88;97627.88;6287190;28;20036;-65
2023/04/07 06:48:32;;;;;;;6.68;4.38;;;;;;;4.04;44.08;97634.22;6285055;28;20043;-65
2023/04/07 06:51:33;;;;;;;4.35;3.30;;;;;;;3.89;44.47;97634.63;6285043;28;20059;-64
2023/04/07 06:54:40;;;;;;;5.55;3.88;;;;;;;4.03;43.99;97640.31;6276564;28;20409;-64
2023/04/07 06:57:49;;;;;;;4.93;3.78;;;;;;;3.95;44.02;97649.22;6287104;28;20066;-65
2023/04/07 07:00:55;;;;;;;6.18;4.20;;;;;;;3.76;44.19;97648.84;6265660;28;20476;-66
2023/04/07 07:04:00;;;;;;;7.45;3.50;;;;;;;3.50;44.56;97652.94;6289380;28;20050;-71
2023/04/07 07:07:04;;;;;;;12.40;6.97;;;;;;;3.50;44.72;97652.94;6284291;28;20521;-66
2023/04/07 07:10:11;;;;;;;;;;;;;;;3.58;44.77;97660.56;6271173;28;20102;-65
2023/04/07 07:13:18;;;;;;;7.18;4.50;;;;;;;3.50;44.49;97645.13;6282111;28;19927;-66
2023/04/07 07:16:23;;;;;;;6.18;3.25;;;;;;;3.24;45.14;97639.72;6280499;28;20411;-65
2023/04/07 07:19:27;;;;;;;4.00;2.47;;;;;;;3.13;45.02;97639.94;6282171;28;20041;-65
2023/04/07 07:22:31;;;;;;;;;;;;;;;3.25;44.50;97641.41;6285723;28;20072;-67
2023/04/07 07:25:35;;;;;;;4.30;2.92;;;;;;;2.99;45.04;97635.06;6280443;28;20412;-70
2023/04/07 07:28:38;;;;;;;;;;;;;;;3.13;45.38;97658.16;6285350;28;20483;-69
2023/04/07 07:31:42;;;;;;;4.43;3.10;;;;;;;3.27;44.77;97655.25;6285894;28;19981;-63
2023/04/07 07:34:45;;;;;;;;;;;;;;;3.43;44.33;97664.41;6280992;28;20048;-63
2023/04/07 07:37:50;;;;;;;4.45;3.13;;;;;;;3.38;43.90;97656.69;6288418;28;19960;-65
2023/04/07 07:40:54;;;;;;;3.15;2.80;;;;;;;3.38;43.62;97659.28;6290252;28;20049;-64
2023/04/07 07:43:58;;;;;;;4.85;3.33;;;;;;;3.30;44.48;97660.38;6286519;28;20070;-66
2023/04/07 07:47:02;;;;;;;4.38;3.38;;;;;;;3.29;44.03;97664.72;6283139;28;20043;-63
2023/04/07 07:50:07;;;;;;;8.73;4.47;;;;;;;3.42;43.46;97662.66;6287189;28;20041;-65
2023/04/07 07:53:18;;;;;;;;;;;;;;;3.77;43.46;97672.25;6283300;28;20049;-66
2023/04/07 07:56:22;;;;;;;10.02;4.78;;;;;;;4.15;42.04;97661.72;6283086;28;20337;-65
2023/04/07 07:59:28;;;;;;;7.18;4.00;;;;;;;4.34;40.89;97660.34;6264854;28;20058;-66
2023/04/07 08:02:35;;;;;;;5.72;3.60;;;;;;;4.54;40.90;97664.16;6288101;28;20076;-66
2023/04/07 08:05:41;;;;;;;3.00;2.70;;;;;;;4.78;40.04;97673.00;6289042;28;20051;-66
2023/04/07 08:08:45;;;;;;;5.43;2.72;;;;;;;5.13;39.31;97675.44;6289116;28;20057;-66
2023/04/07 08:11:49;;;;;;;;;;;;;;;5.62;39.23;97679.13;6286673;28;20046;-66
2023/04/07 08:14:54;;;;;;;2.90;1.98;;;;;;;5.84;37.90;97679.28;6290236;28;19920;-67
2023/04/07 08:18:03;;;;;;;9.02;3.17;;;;;;;6.14;37.44;97681.78;6288453;28;20050;-67
2023/04/07 08:21:09;;;;;;;3.90;2.50;;;;;;;6.26;37.00;97684.00;6293670;28;20040;-66
2023/04/07 08:24:13;;;;;;;3.72;2.17;;;;;;;6.15;37.60;97678.28;6291553;28;20036;-69
2023/04/07 08:27:16;;;;;;;;;;;;;;;6.23;36.79;97686.72;6296049;28;20047;-69
2023/04/07 08:30:20;;;;;;;7.43;4.88;;;;;;;5.76;37.87;97689.13;6291954;28;20007;-74
2023/04/07 08:33:25;;;;;;;3.85;3.53;;;;;;;5.88;37.67;97690.47;6296534;28;20046;-69
2023/04/07 08:36:30;;;;;;;3.85;2.33;;;;;;;6.51;37.16;97696.19;6291869;28;20136;-70
2023/04/07 08:39:33;;;;;;;;;;;;;;;7.18;36.08;97685.84;6285196;28;20190;-70
2023/04/07 08:42:41;;;;;;;9.75;2.85;;;;;;;7.25;35.75;97690.88;6280559;28;19950;-70
2023/04/07 08:45:48;;;;;;;5.15;2.50;;;;;;;7.13;35.62;97700.91;6280790;28;20048;-69
2023/04/07 08:48:55;;;;;;;7.03;4.00;;;;;;;6.63;36.94;97698.38;6286632;28;20036;-71
2023/04/07 08:52:05;;;;;;;9.85;3.60;;;;;;;6.20;36.89;97699.00;6285625;28;20128;-68
2023/04/07 08:55:10;;;;;;;4.05;2.58;;;;;;;5.89;37.70;97710.47;6284961;28;20406;-69
2023/04/07 08:58:15;;;;;;;4.55;2.60;;;;;;;5.92;37.90;97702.53;6285134;28;20047;-73
2023/04/07 09:01:24;;;;;;;6.90;4.20;;;;;;;6.25;37.55;97711.00;6282206;28;20424;-68
2023/04/07 09:04:30;;;;;;;6.07;2.80;;;;;;;6.55;36.90;97713.50;6285845;28;20060;-69
2023/04/07 09:07:35;;;;;;;9.95;3.40;;;;;;;6.78;36.24;97709.19;6292283;28;20481;-68
2023/04/07 09:10:39;;;;;;;4.47;2.75;;;;;;;6.91;35.99;97708.69;6292401;28;20077;-68
2023/04/07 09:13:44;;;;;;;7.25;2.70;;;;;;;6.75;35.94;97713.63;6290068;28;20413;-69
2023/04/07 09:16:49;;;;;;;4.78;2.13;;;;;;;6.67;35.95;97697.34;6290298;28;20073;-68
2023/04/07 09:19:52;;;;;;;;;;;;;;;6.83;35.26;97713.34;6293485;28;20112;-67
2023/04/07 09:22:58;;;;;;;8.82;2.47;;;;;;;6.75;35.79;97716.25;6293192;28;19920;-68
2023/04/07 09:26:23;;;;;;;4.20;2.63;;;;;;;7.48;35.35;97717.03;6290334;28;20040;-67
2023/04/07 09:29:26;;;;;;;6.55;3.40;;;;;;;7.90;33.47;97716.22;6293269;28;20044;-68
2023/04/07 09:32:40;;;;;;;;;;;;;;;8.65;33.22;97712.22;6293097;28;20051;-68
2023/04/07 09:35:54;;;;;;;6.03;2.63;;;;;;;10.23;31.11;97725.88;6292080;28;20464;-67
2023/04/07 09:39:08;;;;;;;4.80;2.08;;;;;;;11.15;29.06;97722.00;6287252;28;20033;-68
2023/04/07 09:42:12;;;;;;;6.90;2.55;;;;;;;10.76;29.42;97720.53;6290400;28;20037;-68
2023/04/07 09:45:23;;;;;;;;;;;;;;;10.44;30.16;97724.81;6288142;28;20059;-68
2023/04/07 09:48:28;;;;;;;3.42;2.08;;;;;;;10.14;29.28;97727.19;6285544;28;20049;-67
2023/04/07 09:51:35;;;;;;;3.50;1.90;;;;;;;10.37;28.94;97725.22;6285012;28;20114;-67
2023/04/07 09:54:40;;;;;;;4.53;2.72;;;;;;;11.54;27.31;97726.03;6287849;28;20282;-68
2023/04/07 09:57:45;;;;;;;4.28;2.15;;;;;;;11.71;27.13;97724.25;6290498;28;20048;-68
2023/04/07 10:00:52;;;;;;;7.13;2.38;;;;;;;12.04;26.83;97725.00;6290812;28;20042;-69
2023/04/07 10:03:57;;;;;;;2.58;2.28;;;;;;;12.90;26.01;97722.59;6287954;28;20047;-69
2023/04/07 10:07:03;;;;;;;11.60;4.28;;;;;;;13.25;25.82;97725.75;6290012;28;20040;-68
2023/04/07 10:10:09;;;;;;;6.60;1.90;;;;;;;12.51;26.55;97731.09;6282493;28;20066;-68
2023/04/07 10:13:13;;;;;;;5.88;2.08;;;;;;;11.94;27.51;97738.81;6287879;28;20059;-69
2023/04/07 10:16:18;;;;;;;4.22;2.08;;;;;;;12.51;26.69;97726.69;6288864;28;20052;-68
2023/04/07 10:19:25;;;;;;;4.90;2.47;;;;;;;12.42;26.15;97731.63;6287570;28;20584;-69
2023/04/07 10:22:31;;;;;;;4.55;1.85;;;;;;;12.65;25.89;97730.28;6289998;28;20403;-68
2023/04/07 10:25:41;;;;;;;5.72;2.10;;;;;;;12.83;25.89;97738.91;6286857;28;20059;-68
2023/04/07 10:28:57;;;;;;;7.38;2.30;;;;;;;12.83;25.40;97734.47;6284616;28;20045;-68
2023/04/07 10:32:02;;;;;;;4.95;2.90;;;;;;;12.85;25.53;97743.16;6291878;28;20044;-68
2023/04/07 10:35:06;;;;;;;4.20;2.63;;;;;;;12.68;25.76;97745.94;6287978;28;20417;-68
2023/04/07 10:38:37;;;;;;;2.05;1.70;;;;;;;12.32;26.17;97741.91;6285117;28;20741;-69
2023/04/07 10:41:42;;;;;;;7.35;2.13;;;;;;;12.01;25.84;97743.66;6287819;28;20052;-68
2023/04/07 10:44:48;;;;;;;3.03;1.65;;;;;;;12.17;25.95;97734.84;6290227;28;20182;-68
2023/04/07 10:48:01;;;;;;;5.80;1.85;;;;;;;12.44;25.47;97749.09;6284554;28;20271;-69
2023/04/07 10:51:09;;;;;;;4.53;2.25;;;;;;;12.34;25.12;97753.19;6288500;28;20040;-69
2023/04/07 10:54:22;;;;;;;6.05;1.88;;;;;;;11.94;24.98;97739.66;6282571;28;20051;-69
2023/04/07 10:57:34;;;;;;;8.63;2.30;;;;;;;11.26;26.02;97744.28;6289302;28;20055;-69
2023/04/07 11:00:38;;;;;;;6.88;2.20;;;;;;;11.21;26.42;97750.66;6289584;28;20044;-68
2023/04/07 11:03:53;;;;;;;3.90;1.92;;;;;;;11.06;26.32;97751.44;6288487;28;20043;-68
2023/04/07 11:06:58;;;;;;;4.82;2.28;;;;;;;11.04;26.64;97742.81;6287387;28;20043;-68
2023/04/07 11:10:14;;;;;;;7.28;2.65;;;;;;;11.03;26.55;97754.25;6290760;28;20500;-68
2023/04/07 11:13:18;;;;;;;5.72;2.38;;;;;;;10.85;26.64;97752.59;6291020;28;20067;-67
2023/04/07 11:16:36;;;;;;;2.20;1.33;;;;;;;10.48;25.93;97747.41;6287945;28;20081;-67
2023/04/07 11:19:56;;;;;;;5.57;1.27;;;;;;;10.19;26.17;97746.22;6284645;28;20040;-68
2023/04/07 11:23:01;;;;;;;4.22;1.15;;;;;;;10.03;26.16;97747.91;6286979;28;20116;-69
2023/04/07 11:26:03;;;;;;;;;;;;;;;10.36;26.05;97750.69;6288513;28;20614;-68
2023/04/07 11:29:10;;;;;;;2.00;1.15;;;;;;;10.47;25.55;97742.22;6283634;28;20407;-74
2023/04/07 11:32:15;;;;;;;2.10;1.20;;;;;;;10.55;25.60;97750.59;6283933;28;20425;-69
2023/04/07 11:35:20;;;;;;;7.45;1.63;;;;;;;10.87;25.33;97742.81;6288029;28;20051;-68
2023/04/07 11:38:26;;;;;;;6.95;1.73;;;;;;;11.15;25.05;97755.38;6292808;28;20071;-67
2023/04/07 11:41:32;;;;;;;6.25;1.95;;;;;;;11.26;25.15;97747.75;6287407;28;20039;-69
2023/04/07 11:44:46;;;;;;;5.07;2.30;;;;;;;11.29;25.25;97738.84;6290830;28;20055;-68
2023/04/07 11:47:49;;;;;;;4.97;2.53;;;;;;;10.94;25.40;97752.09;6293134;28;20169;-69
2023/04/07 11:50:54;;;;;;;8.77;2.42;;;;;;;10.53;26.10;97742.78;6290070;28;20038;-69
2023/04/07 11:53:58;;;;;;;5.00;2.10;;;;;;;10.31;26.33;97753.53;6285779;28;20032;-67
2023/04/07 11:57:02;;;;;;;9.45;2.08;;;;;;;10.73;26.03;97754.94;6288944;28;20043;-70
2023/04/07 12:00:10;;;;;;;;;;;;;;;12.51;24.75;97739.88;6293044;28;20043;-70
2023/04/07 12:03:15;;;;;;;8.32;1.98;;;;;;;13.46;23.05;97755.28;6294295;28;19924;-70
2023/04/07 12:06:40;;;;;;;7.45;2.30;;;;;;;13.67;22.52;97752.22;6293095;28;20498;-70
2023/04/07 12:09:46;;;;;;;11.35;2.20;;;;;;;13.52;22.50;97753.19;6291246;28;20106;-69
2023/04/07 12:12:52;;;;;;;5.88;1.77;;;;;;;13.34;22.22;97761.34;6293372;28;20051;-69
2023/04/07 12:16:00;;;;;;;6.28;1.92;;;;;;;13.17;22.12;97759.69;6290420;28;20052;-69
2023/04/07 12:19:07;;;;;;;6.95;1.55;;;;;;;12.77;22.17;97766.53;6288490;28;20429;-70
2023/04/07 12:22:10;;;;;;;5.05;1.92;;;;;;;12.51;22.66;97760.13;6283077;28;20043;-69
2023/04/07 12:25:15;;;;;;;5.05;1.48;;;;;;;12.40;22.55;97779.25;6290403;28;20071;-68
2023/04/07 12:28:19;;;;;;;7.38;2.05;;;;;;;12.16;22.25;97776.22;6292840;28;20637;-69
2023/04/07 12:31:24;;;;;;;8.75;4.78;;;;;;;11.84;22.71;97775.38;6284398;28;20051;-71
2023/04/07 12:34:27;;;;;;;5.63;2.75;;;;;;;11.47;23.06;97780.03;6290369;28;20040;-70
2023/04/07 12:37:32;;;;;;;5.95;2.38;;;;;;;11.19;23.34;97773.59;6293580;28;20429;-69
2023/04/07 12:40:37;;;;;;;13.30;4.72;;;;;;;11.05;23.15;97781.34;6288834;28;20059;-69
2023/04/07 12:43:41;;;;;;;3.13;1.75;;;;;;;10.72;23.25;97776.03;6283947;28;20174;-69
2023/04/07 12:46:46;;;;;;;5.07;1.92;;;;;;;10.53;23.61;97778.75;6294949;28;20050;-70
2023/04/07 12:49:51;;;;;;;3.58;2.00;;;;;;;10.60;23.44;97781.94;6292296;28;20040;-68
2023/04/07 12:52:54;;;;;;;;;;;;;;;10.86;23.62;97780.59;6310107;28;20139;-69
2023/04/07 12:55:58;;;;;;;3.65;1.40;;;;;;;10.60;23.41;97784.56;6286880;28;19926;-68
2023/04/07 12:59:02;;;;;;;2.85;1.52;;;;;;;10.26;23.45;97776.53;6284071;28;20063;-67
2023/04/07 13:02:07;;;;;;;2.55;1.17;;;;;;;10.18;23.67;97789.22;6292724;28;20037;-68
2023/04/07 13:05:12;;;;;;;6.28;1.50;;;;;;;10.16;23.43;97801.56;6290506;28;20052;-68
2023/04/07 13:08:17;;;;;;;2.95;1.98;;;;;;;9.86;23.62;97799.50;6289236;28;20044;-67
2023/04/07 13:11:21;;;;;;;4.50;1.48;;;;;;;9.56;23.91;97800.91;6288648;28;20048;-68
2023/04/07 13:14:28;;;;;;;11.93;4.53;;;;;;;9.22;23.94;97798.03;6291282;28;20115;-67
2023/04/07 13:17:42;;;;;;;6.88;3.42;;;;;;;8.80;23.87;97808.63;6277005;28;20447;-68
2023/04/07 13:20:46;;;;;;;7.40;2.40;;;;;;;8.48;24.06;97800.38;6290157;28;20051;-68
2023/04/07 13:23:50;;;;;;;5.68;2.05;;;;;;;8.41;24.13;97814.66;6291262;28;20121;-68
2023/04/07 13:26:56;;;;;;;7.13;1.77;;;;;;;8.17;24.49;97816.47;6290457;28;20040;-67
2023/04/07 13:30:01;;;;;;;4.35;1.48;;;;;;;7.83;24.42;97801.22;6291570;28;20042;-68
2023/04/07 13:33:04;;;;;;;;;;;;;;;7.57;25.09;97821.41;6291073;28;20055;-68
2023/04/07 13:36:08;;;;;;;4.70;1.63;;;;;;;7.06;25.04;97822.41;6290742;28;19927;-67
2023/04/07 13:39:12;;;;;;;;;;;;;;;6.74;25.47;97834.00;6291913;28;20109;-67
2023/04/07 13:42:18;;;;;;;7.88;1.70;;;;;;;6.32;25.91;97825.84;6288204;28;19959;-67
2023/04/07 13:45:24;;;;;;;2.40;0.95;;;;;;;6.02;26.26;97831.13;6285752;28;20414;-67
2023/04/07 13:48:29;;;;;;;4.10;1.20;;;;;;;5.54;26.34;97834.28;6287515;28;20047;-76
2023/04/07 13:51:34;;;;;;;3.65;1.48;;;;;;;5.24;27.00;97834.28;6289850;28;20051;-66
2023/04/07 13:54:38;;;;;;;6.00;1.50;;;;;;;5.03;27.22;97834.88;6290752;28;20222;-68
2023/04/07 13:57:44;;;;;;;10.45;4.57;;;;;;;4.86;27.90;97845.75;6289453;28;20043;-66
2023/04/07 14:00:49;;;;;;;7.70;3.08;;;;;;;4.70;27.81;97848.78;6286993;28;20036;-69
2023/04/07 14:03:54;;;;;;;5.03;2.13;;;;;;;4.67;28.08;97837.53;6290939;28;20497;-70
2023/04/07 14:06:59;;;;;;;6.50;1.90;;;;;;;4.55;28.07;97843.06;6293226;28;20036;-68
2023/04/07 14:10:05;;;;;;;8.23;2.20;;;;;;;4.37;28.31;97852.22;6286505;28;20123;-70
2023/04/07 14:13:09;;;;;;;3.35;1.67;;;;;;;4.09;28.69;97857.22;6287900;28;20042;-71
2023/04/07 14:16:12;;;;;;;;;;;;;;;3.82;28.79;97851.72;6284532;28;20584;-69
2023/04/07 14:19:37;;;;;;;12.57;2.20;;;;;;;3.55;29.02;97868.81;6289493;28;22012;-70
2023/04/07 14:22:41;;;;;;;2.25;1.05;;;;;;;3.25;29.35;97867.69;6301768;28;20037;-69
2023/04/07 14:25:47;;;;;;;4.72;1.70;;;;;;;3.06;29.60;97870.66;6286858;28;20041;-70
2023/04/07 14:28:51;;;;;;;16.63;3.17;;;;;;;2.87;29.59;97874.50;6287148;28;20033;-70
2023/04/07 14:31:54;;;;;;;;;;;;;;;2.65;29.69;97885.25;6296244;28;20051;-70
2023/04/07 14:35:00;;;;;;;5.30;2.10;;;;;;;2.41;30.49;97875.28;6285992;28;19920;-69
2023/04/07 14:38:03;;;;;;;;;;;;;;;2.34;30.03;97886.63;6292304;28;20039;-69
2023/04/07 14:41:08;;;;;;;13.57;2.15;;;;;;;2.12;30.23;97886.09;6284124;28;20008;-70
2023/04/07 14:44:13;;;;;;;8.15;1.73;;;;;;;1.98;30.20;97896.69;6303498;28;20571;-71
2023/04/07 14:47:15;;;;;;;;;;;;;;;1.87;30.09;97899.47;6281921;28;20551;-69